Skip Navigation Links
NOAA logo - Click to go to the NOAA homepage
NOAA's National Weather Service
Alaska Aviation Weather Unit
  NWS logo - Click to go to the NWS homepage
Left Navbar Graphic     23 AKDT = 07 GMT

   
NOAA is celebrating 200 years of science, service, and stewardship. Visit the NOAA 200th celebration Web site to learn more.
USA.gov is the U.S. Government's official Web portal to all Federal, state and local government Web resources and services.
Facebook
NWS on Facebook

Important Change Regarding the AAWU Web Presence

 

Over the last several months, the AAWU has been working to navigate its webpages to a nationally supported server. Security, as well as other needs, have necessitated the change.  In the process, we have made an effort to enhance the functionality of our website, as well as some of our products. As of June 20, 2017, aawu.arh.noaa.gov will be discontinued. The new AAWU web address is weather.gov/aawu. It is now live and will run in-parallel with the old site until it is discontinued. Please send any feedback or questions regarding the new webpages to nws.ar.aawu.webauthors@noaa.gov.  Thank you for your patience during this time of transition.
AAWU Home :: Display TAF Add Bookmark
TAF PAKT 240520Z 2406/2506 29012G22KT P6SM VCSH BKN025
     FM240900 30011G15KT P6SM SCT025 BKN045
     FM241800 33011KT P6SM BKN035 AMD LTD TO CLD VIS AND WIND
      2406/2415=

METAR PAKT 240153Z 30012G19KT 10SM FEW018 FEW027 OVC037 11/08 A2994= METAR PAKT 240253Z 29011G17KT 10SM FEW028 OVC035 11/07 A2996= METAR PAKT 240353Z 30012G18KT 10SM FEW021 BKN028 OVC033 11/07 A2998= METAR PAKT 240453Z 30010G19KT 10SM FEW021 BKN028 OVC033 11/06 A3000= METAR PAKT 240553Z AUTO 30013G20KT 10SM OVC028 11/06 A3002= SPECI PAKT 240606Z AUTO 30013G22KT 10SM OVC030 11/06 A3003 RMK AO2 T01060061 TSNO= METAR PAKT 240653Z AUTO 30015G23KT 10SM OVC033 11/06 A3005=
 Alaska TAF Map

NOAA's National Weather Service
Alaska Aviation Weather Unit
6930 Sand Lake Road
Anchorage, AK 99502-1845
Disclaimer
Credits
Glossary
Privacy Policy
About Us
Career Opportunities
Contact AAWU Internet Services Site last modified: April, 17th 2012